sensor_id;sensor_type;location;lat;lon;timestamp;P1;durP1;ratioP1;P2;durP2;ratioP2
69795;SDS011;57073;45.650;9.612;2022-10-04T00:01:12;18.85;;;11.18;;
69795;SDS011;57073;45.650;9.612;2022-10-04T00:03:33;17.63;;;10.80;;
69795;SDS011;57073;45.650;9.612;2022-10-04T00:05:40;16.98;;;10.57;;
69795;SDS011;57073;45.650;9.612;2022-10-04T00:07:45;15.35;;;10.40;;
69795;SDS011;57073;45.650;9.612;2022-10-04T00:12:13;15.20;;;10.20;;
69795;SDS011;57073;45.650;9.612;2022-10-04T00:14:21;15.93;;;10.05;;
69795;SDS011;57073;45.650;9.612;2022-10-04T00:16:28;16.83;;;10.98;;
69795;SDS011;57073;45.650;9.612;2022-10-04T00:18:40;17.30;;;11.10;;
69795;SDS011;57073;45.650;9.612;2022-10-04T00:25:33;15.80;;;10.35;;
69795;SDS011;57073;45.650;9.612;2022-10-04T00:27:35;16.27;;;10.32;;
69795;SDS011;57073;45.650;9.612;2022-10-04T00:29:38;17.58;;;11.90;;
69795;SDS011;57073;45.650;9.612;2022-10-04T00:34:43;15.13;;;10.50;;
69795;SDS011;57073;45.650;9.612;2022-10-04T00:36:33;18.20;;;11.30;;
69795;SDS011;57073;45.650;9.612;2022-10-04T00:38:38;17.73;;;11.52;;
69795;SDS011;57073;45.650;9.612;2022-10-04T00:40:41;18.33;;;10.93;;
69795;SDS011;57073;45.650;9.612;2022-10-04T00:42:57;17.92;;;11.48;;
69795;SDS011;57073;45.650;9.612;2022-10-04T00:45:14;19.43;;;10.60;;
69795;SDS011;57073;45.650;9.612;2022-10-04T00:47:31;15.07;;;11.02;;
69795;SDS011;57073;45.650;9.612;2022-10-04T00:49:55;21.95;;;11.95;;
69795;SDS011;57073;45.650;9.612;2022-10-04T00:52:35;18.25;;;11.93;;
69795;SDS011;57073;45.650;9.612;2022-10-04T00:54:46;18.02;;;11.60;;
69795;SDS011;57073;45.650;9.612;2022-10-04T00:56:54;19.83;;;11.80;;
69795;SDS011;57073;45.650;9.612;2022-10-04T01:01:25;17.33;;;11.30;;
69795;SDS011;57073;45.650;9.612;2022-10-04T01:03:29;15.68;;;10.70;;
69795;SDS011;57073;45.650;9.612;2022-10-04T01:05:37;17.40;;;11.48;;
69795;SDS011;57073;45.650;9.612;2022-10-04T01:07:43;17.07;;;10.67;;
69795;SDS011;57073;45.650;9.612;2022-10-04T01:09:51;16.55;;;11.48;;
69795;SDS011;57073;45.650;9.612;2022-10-04T01:11:58;13.98;;;10.40;;
69795;SDS011;57073;45.650;9.612;2022-10-04T01:14:20;16.20;;;10.48;;
69795;SDS011;57073;45.650;9.612;2022-10-04T01:16:54;16.75;;;10.93;;
69795;SDS011;57073;45.650;9.612;2022-10-04T01:18:54;14.30;;;10.57;;
69795;SDS011;57073;45.650;9.612;2022-10-04T01:25:42;17.00;;;10.93;;
69795;SDS011;57073;45.650;9.612;2022-10-04T01:27:49;17.20;;;11.30;;
69795;SDS011;57073;45.650;9.612;2022-10-04T01:29:51;17.48;;;11.27;;
69795;SDS011;57073;45.650;9.612;2022-10-04T01:31:53;16.33;;;10.88;;
69795;SDS011;57073;45.650;9.612;2022-10-04T01:33:55;17.47;;;11.20;;
69795;SDS011;57073;45.650;9.612;2022-10-04T01:35:56;19.02;;;10.50;;
69795;SDS011;57073;45.650;9.612;2022-10-04T01:37:57;16.17;;;10.38;;
69795;SDS011;57073;45.650;9.612;2022-10-04T01:39:58;15.80;;;10.90;;
69795;SDS011;57073;45.650;9.612;2022-10-04T01:42:10;15.13;;;10.38;;
69795;SDS011;57073;45.650;9.612;2022-10-04T01:44:21;15.18;;;10.30;;
69795;SDS011;57073;45.650;9.612;2022-10-04T01:46:36;15.27;;;9.82;;
69795;SDS011;57073;45.650;9.612;2022-10-04T01:48:40;15.17;;;9.83;;
69795;SDS011;57073;45.650;9.612;2022-10-04T01:50:50;15.15;;;10.27;;
69795;SDS011;57073;45.650;9.612;2022-10-04T01:53:08;13.43;;;9.30;;
69795;SDS011;57073;45.650;9.612;2022-10-04T01:55:27;16.58;;;9.10;;
69795;SDS011;57073;45.650;9.612;2022-10-04T01:57:37;12.93;;;9.10;;
69795;SDS011;57073;45.650;9.612;2022-10-04T01:59:52;14.20;;;8.90;;
69795;SDS011;57073;45.650;9.612;2022-10-04T02:02:05;11.27;;;8.85;;
69795;SDS011;57073;45.650;9.612;2022-10-04T02:06:21;13.52;;;8.90;;
69795;SDS011;57073;45.650;9.612;2022-10-04T02:08:28;12.90;;;9.10;;
69795;SDS011;57073;45.650;9.612;2022-10-04T02:10:31;12.87;;;9.13;;
69795;SDS011;57073;45.650;9.612;2022-10-04T02:12:35;14.05;;;8.82;;
69795;SDS011;57073;45.650;9.612;2022-10-04T02:14:38;16.10;;;8.20;;
69795;SDS011;57073;45.650;9.612;2022-10-04T02:16:48;11.60;;;8.05;;
69795;SDS011;57073;45.650;9.612;2022-10-04T02:18:52;11.05;;;8.02;;
69795;SDS011;57073;45.650;9.612;2022-10-04T02:20:54;11.43;;;7.27;;
69795;SDS011;57073;45.650;9.612;2022-10-04T02:22:56;11.63;;;7.35;;
69795;SDS011;57073;45.650;9.612;2022-10-04T02:25:02;10.57;;;6.85;;
69795;SDS011;57073;45.650;9.612;2022-10-04T02:27:03;9.80;;;7.32;;
69795;SDS011;57073;45.650;9.612;2022-10-04T02:29:05;12.68;;;7.13;;
69795;SDS011;57073;45.650;9.612;2022-10-04T02:31:08;14.90;;;7.30;;
69795;SDS011;57073;45.650;9.612;2022-10-04T02:33:28;10.27;;;6.95;;
69795;SDS011;57073;45.650;9.612;2022-10-04T02:35:29;10.25;;;7.00;;
69795;SDS011;57073;45.650;9.612;2022-10-04T02:37:34;11.65;;;6.13;;
69795;SDS011;57073;45.650;9.612;2022-10-04T02:39:43;9.37;;;6.20;;
69795;SDS011;57073;45.650;9.612;2022-10-04T02:41:51;7.85;;;5.72;;
69795;SDS011;57073;45.650;9.612;2022-10-04T02:44:15;10.35;;;7.03;;
69795;SDS011;57073;45.650;9.612;2022-10-04T02:46:27;9.45;;;6.57;;
69795;SDS011;57073;45.650;9.612;2022-10-04T02:50:53;10.20;;;7.00;;
69795;SDS011;57073;45.650;9.612;2022-10-04T02:53:09;14.02;;;7.45;;
69795;SDS011;57073;45.650;9.612;2022-10-04T02:55:24;11.73;;;6.95;;
69795;SDS011;57073;45.650;9.612;2022-10-04T02:57:29;12.35;;;7.40;;
69795;SDS011;57073;45.650;9.612;2022-10-04T02:59:31;12.32;;;7.60;;
69795;SDS011;57073;45.650;9.612;2022-10-04T03:01:40;11.73;;;7.77;;
69795;SDS011;57073;45.650;9.612;2022-10-04T03:03:48;11.70;;;7.95;;
69795;SDS011;57073;45.650;9.612;2022-10-04T03:08:02;12.40;;;7.63;;
69795;SDS011;57073;45.650;9.612;2022-10-04T03:10:08;12.50;;;8.52;;
69795;SDS011;57073;45.650;9.612;2022-10-04T03:12:11;11.18;;;8.15;;
69795;SDS011;57073;45.650;9.612;2022-10-04T03:14:13;14.07;;;8.90;;
69795;SDS011;57073;45.650;9.612;2022-10-04T03:16:18;14.07;;;8.50;;
69795;SDS011;57073;45.650;9.612;2022-10-04T03:18:19;11.20;;;7.93;;
69795;SDS011;57073;45.650;9.612;2022-10-04T03:20:22;10.23;;;7.75;;
69795;SDS011;57073;45.650;9.612;2022-10-04T03:22:24;13.05;;;7.63;;
69795;SDS011;57073;45.650;9.612;2022-10-04T03:24:28;12.63;;;7.75;;
69795;SDS011;57073;45.650;9.612;2022-10-04T03:26:41;12.67;;;7.20;;
69795;SDS011;57073;45.650;9.612;2022-10-04T03:28:46;11.95;;;7.22;;
69795;SDS011;57073;45.650;9.612;2022-10-04T03:30:47;10.57;;;6.88;;
69795;SDS011;57073;45.650;9.612;2022-10-04T03:32:49;8.93;;;6.43;;
69795;SDS011;57073;45.650;9.612;2022-10-04T03:34:57;10.27;;;7.10;;
69795;SDS011;57073;45.650;9.612;2022-10-04T03:36:59;13.10;;;7.63;;
69795;SDS011;57073;45.650;9.612;2022-10-04T03:39:01;10.73;;;6.88;;
69795;SDS011;57073;45.650;9.612;2022-10-04T03:41:08;10.77;;;7.07;;
69795;SDS011;57073;45.650;9.612;2022-10-04T03:43:10;10.65;;;6.68;;
69795;SDS011;57073;45.650;9.612;2022-10-04T03:45:13;11.25;;;7.00;;
69795;SDS011;57073;45.650;9.612;2022-10-04T03:47:25;11.70;;;6.37;;
69795;SDS011;57073;45.650;9.612;2022-10-04T03:49:31;9.50;;;6.50;;
69795;SDS011;57073;45.650;9.612;2022-10-04T03:51:35;9.10;;;5.97;;
69795;SDS011;57073;45.650;9.612;2022-10-04T03:53:50;7.57;;;5.85;;
69795;SDS011;57073;45.650;9.612;2022-10-04T03:55:58;8.68;;;5.97;;
69795;SDS011;57073;45.650;9.612;2022-10-04T03:58:01;11.40;;;6.30;;
69795;SDS011;57073;45.650;9.612;2022-10-04T04:00:03;10.93;;;6.10;;
69795;SDS011;57073;45.650;9.612;2022-10-04T04:02:08;10.23;;;6.05;;
69795;SDS011;57073;45.650;9.612;2022-10-04T04:04:42;9.77;;;6.05;;
69795;SDS011;57073;45.650;9.612;2022-10-04T04:08:55;8.37;;;5.73;;
69795;SDS011;57073;45.650;9.612;2022-10-04T04:10:58;9.40;;;5.80;;
69795;SDS011;57073;45.650;9.612;2022-10-04T04:13:24;8.15;;;5.90;;
69795;SDS011;57073;45.650;9.612;2022-10-04T04:15:31;7.07;;;4.20;;
69795;SDS011;57073;45.650;9.612;2022-10-04T04:17:35;8.05;;;4.47;;
69795;SDS011;57073;45.650;9.612;2022-10-04T04:19:40;5.70;;;4.10;;
69795;SDS011;57073;45.650;9.612;2022-10-04T04:21:42;6.13;;;4.07;;
69795;SDS011;57073;45.650;9.612;2022-10-04T04:23:44;7.32;;;4.13;;
69795;SDS011;57073;45.650;9.612;2022-10-04T04:25:52;8.27;;;4.03;;
69795;SDS011;57073;45.650;9.612;2022-10-04T04:28:00;7.38;;;4.13;;
69795;SDS011;57073;45.650;9.612;2022-10-04T04:30:04;7.60;;;4.30;;
69795;SDS011;57073;45.650;9.612;2022-10-04T04:34:18;7.68;;;4.57;;
69795;SDS011;57073;45.650;9.612;2022-10-04T04:36:21;6.30;;;4.50;;
69795;SDS011;57073;45.650;9.612;2022-10-04T04:38:22;9.27;;;4.97;;
69795;SDS011;57073;45.650;9.612;2022-10-04T04:40:24;7.38;;;4.55;;
69795;SDS011;57073;45.650;9.612;2022-10-04T04:42:34;9.43;;;4.82;;
69795;SDS011;57073;45.650;9.612;2022-10-04T04:44:36;6.90;;;4.35;;
69795;SDS011;57073;45.650;9.612;2022-10-04T04:46:39;7.63;;;4.60;;
69795;SDS011;57073;45.650;9.612;2022-10-04T04:48:44;8.48;;;5.03;;
69795;SDS011;57073;45.650;9.612;2022-10-04T04:50:48;8.15;;;4.30;;
69795;SDS011;57073;45.650;9.612;2022-10-04T04:52:54;10.25;;;4.50;;
69795;SDS011;57073;45.650;9.612;2022-10-04T04:55:17;8.55;;;4.80;;
69795;SDS011;57073;45.650;9.612;2022-10-04T04:57:22;6.90;;;4.40;;
69795;SDS011;57073;45.650;9.612;2022-10-04T04:59:23;8.32;;;4.57;;
69795;SDS011;57073;45.650;9.612;2022-10-04T05:03:41;8.10;;;4.45;;
69795;SDS011;57073;45.650;9.612;2022-10-04T05:05:43;9.33;;;4.30;;
69795;SDS011;57073;45.650;9.612;2022-10-04T05:07:46;7.80;;;4.82;;
69795;SDS011;57073;45.650;9.612;2022-10-04T05:09:47;7.97;;;4.30;;
69795;SDS011;57073;45.650;9.612;2022-10-04T05:11:48;6.38;;;4.47;;
69795;SDS011;57073;45.650;9.612;2022-10-04T05:13:55;8.52;;;4.38;;
69795;SDS011;57073;45.650;9.612;2022-10-04T05:16:05;7.80;;;4.20;;
69795;SDS011;57073;45.650;9.612;2022-10-04T05:18:12;8.03;;;4.70;;
69795;SDS011;57073;45.650;9.612;2022-10-04T05:20:30;8.27;;;4.90;;
69795;SDS011;57073;45.650;9.612;2022-10-04T05:22:34;9.68;;;5.18;;
69795;SDS011;57073;45.650;9.612;2022-10-04T05:24:45;7.75;;;5.13;;
69795;SDS011;57073;45.650;9.612;2022-10-04T05:26:51;9.63;;;5.50;;
69795;SDS011;57073;45.650;9.612;2022-10-04T05:28:58;8.73;;;5.83;;
69795;SDS011;57073;45.650;9.612;2022-10-04T05:33:47;8.77;;;5.70;;
69795;SDS011;57073;45.650;9.612;2022-10-04T05:38:28;8.90;;;6.00;;
69795;SDS011;57073;45.650;9.612;2022-10-04T05:40:44;8.10;;;5.63;;
69795;SDS011;57073;45.650;9.612;2022-10-04T05:45:38;8.50;;;5.78;;
69795;SDS011;57073;45.650;9.612;2022-10-04T05:47:43;11.82;;;5.85;;
69795;SDS011;57073;45.650;9.612;2022-10-04T05:49:49;10.48;;;5.72;;
69795;SDS011;57073;45.650;9.612;2022-10-04T05:51:59;11.57;;;5.63;;
69795;SDS011;57073;45.650;9.612;2022-10-04T05:54:07;10.85;;;6.57;;
69795;SDS011;57073;45.650;9.612;2022-10-04T06:00:50;11.63;;;6.30;;
69795;SDS011;57073;45.650;9.612;2022-10-04T06:21:26;9.30;;;5.97;;
69795;SDS011;57073;45.650;9.612;2022-10-04T06:23:27;11.38;;;5.60;;
69795;SDS011;57073;45.650;9.612;2022-10-04T06:25:32;10.53;;;5.97;;
69795;SDS011;57073;45.650;9.612;2022-10-04T06:27:55;9.52;;;6.10;;
69795;SDS011;57073;45.650;9.612;2022-10-04T06:30:15;9.43;;;5.75;;
69795;SDS011;57073;45.650;9.612;2022-10-04T06:41:30;11.50;;;5.75;;
69795;SDS011;57073;45.650;9.612;2022-10-04T06:43:49;11.68;;;6.25;;
69795;SDS011;57073;45.650;9.612;2022-10-04T06:46:16;9.43;;;5.27;;
69795;SDS011;57073;45.650;9.612;2022-10-04T06:50:31;11.57;;;6.38;;
69795;SDS011;57073;45.650;9.612;2022-10-04T07:04:43;11.75;;;7.00;;
69795;SDS011;57073;45.650;9.612;2022-10-04T07:09:26;10.80;;;6.85;;
69795;SDS011;57073;45.650;9.612;2022-10-04T07:11:29;13.87;;;6.63;;
69795;SDS011;57073;45.650;9.612;2022-10-04T07:18:04;13.45;;;6.32;;
69795;SDS011;57073;45.650;9.612;2022-10-04T07:20:20;12.77;;;5.93;;
69795;SDS011;57073;45.650;9.612;2022-10-04T07:22:27;10.73;;;6.37;;
69795;SDS011;57073;45.650;9.612;2022-10-04T07:24:38;10.75;;;5.95;;
69795;SDS011;57073;45.650;9.612;2022-10-04T07:27:07;7.57;;;5.70;;
69795;SDS011;57073;45.650;9.612;2022-10-04T07:29:16;10.65;;;6.25;;
69795;SDS011;57073;45.650;9.612;2022-10-04T07:31:30;9.48;;;6.47;;
69795;SDS011;57073;45.650;9.612;2022-10-04T07:33:35;10.53;;;6.43;;
69795;SDS011;57073;45.650;9.612;2022-10-04T07:35:44;9.52;;;6.93;;
69795;SDS011;57073;45.650;9.612;2022-10-04T07:46:49;10.85;;;6.03;;
69795;SDS011;57073;45.650;9.612;2022-10-04T07:48:57;12.55;;;6.18;;
69795;SDS011;57073;45.650;9.612;2022-10-04T07:53:23;9.80;;;6.57;;
69795;SDS011;57073;45.650;9.612;2022-10-04T07:55:37;11.90;;;6.72;;
69795;SDS011;57073;45.650;9.612;2022-10-04T08:03:14;9.60;;;6.03;;
69795;SDS011;57073;45.650;9.612;2022-10-04T08:10:02;10.65;;;6.25;;
69795;SDS011;57073;45.650;9.612;2022-10-04T08:12:13;9.55;;;6.93;;
69795;SDS011;57073;45.650;9.612;2022-10-04T08:25:22;16.02;;;10.60;;
69795;SDS011;57073;45.650;9.612;2022-10-04T08:30:19;13.18;;;9.20;;
69795;SDS011;57073;45.650;9.612;2022-10-04T08:32:31;18.00;;;10.32;;
69795;SDS011;57073;45.650;9.612;2022-10-04T08:42:08;16.52;;;11.35;;
69795;SDS011;57073;45.650;9.612;2022-10-04T08:46:31;18.23;;;10.93;;
69795;SDS011;57073;45.650;9.612;2022-10-04T09:00:19;10.95;;;5.88;;
69795;SDS011;57073;45.650;9.612;2022-10-04T09:16:41;9.07;;;5.18;;
69795;SDS011;57073;45.650;9.612;2022-10-04T09:18:49;11.48;;;5.78;;
69795;SDS011;57073;45.650;9.612;2022-10-04T09:21:07;8.85;;;5.53;;
69795;SDS011;57073;45.650;9.612;2022-10-04T09:55:52;23.48;;;14.30;;
69795;SDS011;57073;45.650;9.612;2022-10-04T10:10:34;20.85;;;13.15;;
69795;SDS011;57073;45.650;9.612;2022-10-04T10:15:49;19.60;;;13.20;;
69795;SDS011;57073;45.650;9.612;2022-10-04T10:25:29;21.52;;;12.55;;
69795;SDS011;57073;45.650;9.612;2022-10-04T10:32:33;15.10;;;10.90;;
69795;SDS011;57073;45.650;9.612;2022-10-04T10:51:02;14.32;;;9.85;;
69795;SDS011;57073;45.650;9.612;2022-10-04T10:55:54;18.17;;;11.83;;
69795;SDS011;57073;45.650;9.612;2022-10-04T11:05:42;17.42;;;12.35;;
69795;SDS011;57073;45.650;9.612;2022-10-04T11:07:53;19.57;;;12.30;;
69795;SDS011;57073;45.650;9.612;2022-10-04T11:12:54;20.70;;;12.27;;
69795;SDS011;57073;45.650;9.612;2022-10-04T11:29:45;17.95;;;13.65;;
69795;SDS011;57073;45.650;9.612;2022-10-04T11:38:32;21.95;;;13.27;;
69795;SDS011;57073;45.650;9.612;2022-10-04T11:45:31;20.50;;;13.68;;
69795;SDS011;57073;45.650;9.612;2022-10-04T11:57:15;22.25;;;13.88;;
69795;SDS011;57073;45.650;9.612;2022-10-04T12:00:12;18.15;;;13.73;;
69795;SDS011;57073;45.650;9.612;2022-10-04T12:16:29;20.33;;;16.08;;
69795;SDS011;57073;45.650;9.612;2022-10-04T12:28:25;18.70;;;14.68;;
69795;SDS011;57073;45.650;9.612;2022-10-04T12:41:42;22.33;;;14.70;;
69795;SDS011;57073;45.650;9.612;2022-10-04T12:48:39;22.93;;;14.53;;
69795;SDS011;57073;45.650;9.612;2022-10-04T12:51:22;20.50;;;15.27;;
69795;SDS011;57073;45.650;9.612;2022-10-04T12:56:07;21.50;;;16.15;;
69795;SDS011;57073;45.650;9.612;2022-10-04T13:00:53;24.50;;;16.30;;
69795;SDS011;57073;45.650;9.612;2022-10-04T13:03:09;24.83;;;17.38;;
69795;SDS011;57073;45.650;9.612;2022-10-04T13:11:59;24.83;;;18.90;;
69795;SDS011;57073;45.650;9.612;2022-10-04T13:21:15;27.30;;;17.75;;
69795;SDS011;57073;45.650;9.612;2022-10-04T13:23:40;22.67;;;16.92;;
69795;SDS011;57073;45.650;9.612;2022-10-04T13:28:39;26.75;;;18.45;;
69795;SDS011;57073;45.650;9.612;2022-10-04T13:30:49;30.05;;;19.48;;
69795;SDS011;57073;45.650;9.612;2022-10-04T13:35:12;25.27;;;19.20;;
69795;SDS011;57073;45.650;9.612;2022-10-04T13:37:28;27.47;;;19.10;;
69795;SDS011;57073;45.650;9.612;2022-10-04T13:44:44;26.52;;;18.33;;
69795;SDS011;57073;45.650;9.612;2022-10-04T13:54:31;25.52;;;19.23;;
69795;SDS011;57073;45.650;9.612;2022-10-04T14:01:58;24.97;;;18.27;;
69795;SDS011;57073;45.650;9.612;2022-10-04T14:06:18;24.83;;;17.75;;
69795;SDS011;57073;45.650;9.612;2022-10-04T14:08:35;27.98;;;21.52;;
69795;SDS011;57073;45.650;9.612;2022-10-04T14:23:18;25.23;;;17.95;;
69795;SDS011;57073;45.650;9.612;2022-10-04T14:25:42;27.30;;;18.33;;
69795;SDS011;57073;45.650;9.612;2022-10-04T14:32:35;25.23;;;18.77;;
69795;SDS011;57073;45.650;9.612;2022-10-04T14:37:39;27.70;;;20.07;;
69795;SDS011;57073;45.650;9.612;2022-10-04T14:47:01;29.48;;;21.80;;
69795;SDS011;57073;45.650;9.612;2022-10-04T14:51:54;28.63;;;19.77;;
69795;SDS011;57073;45.650;9.612;2022-10-04T14:54:05;30.20;;;21.00;;
69795;SDS011;57073;45.650;9.612;2022-10-04T15:07:53;26.77;;;18.58;;
69795;SDS011;57073;45.650;9.612;2022-10-04T15:16:59;32.38;;;23.65;;
69795;SDS011;57073;45.650;9.612;2022-10-04T15:28:28;35.75;;;25.02;;
69795;SDS011;57073;45.650;9.612;2022-10-04T15:30:56;37.20;;;22.52;;
69795;SDS011;57073;45.650;9.612;2022-10-04T15:33:07;35.47;;;23.67;;
69795;SDS011;57073;45.650;9.612;2022-10-04T15:35:36;33.22;;;24.10;;
69795;SDS011;57073;45.650;9.612;2022-10-04T15:40:36;34.42;;;23.67;;
69795;SDS011;57073;45.650;9.612;2022-10-04T15:47:25;35.30;;;25.10;;
69795;SDS011;57073;45.650;9.612;2022-10-04T15:58:48;40.00;;;27.63;;
69795;SDS011;57073;45.650;9.612;2022-10-04T16:05:28;36.22;;;25.70;;
69795;SDS011;57073;45.650;9.612;2022-10-04T16:10:16;37.92;;;27.08;;
69795;SDS011;57073;45.650;9.612;2022-10-04T16:12:51;39.03;;;26.97;;
69795;SDS011;57073;45.650;9.612;2022-10-04T16:14:58;39.00;;;27.33;;
69795;SDS011;57073;45.650;9.612;2022-10-04T16:19:36;37.95;;;27.20;;
69795;SDS011;57073;45.650;9.612;2022-10-04T16:22:07;37.17;;;26.95;;
69795;SDS011;57073;45.650;9.612;2022-10-04T16:33:36;39.97;;;26.80;;
69795;SDS011;57073;45.650;9.612;2022-10-04T16:36:18;38.60;;;27.08;;
69795;SDS011;57073;45.650;9.612;2022-10-04T16:38:23;36.08;;;26.08;;
69795;SDS011;57073;45.650;9.612;2022-10-04T16:40:32;38.73;;;26.30;;
69795;SDS011;57073;45.650;9.612;2022-10-04T16:42:45;38.05;;;27.20;;
69795;SDS011;57073;45.650;9.612;2022-10-04T16:44:56;41.50;;;26.77;;
69795;SDS011;57073;45.650;9.612;2022-10-04T16:47:53;33.28;;;24.52;;
69795;SDS011;57073;45.650;9.612;2022-10-04T16:50:43;39.00;;;27.15;;
69795;SDS011;57073;45.650;9.612;2022-10-04T16:53:17;39.58;;;26.63;;
69795;SDS011;57073;45.650;9.612;2022-10-04T16:57:31;42.67;;;26.33;;
69795;SDS011;57073;45.650;9.612;2022-10-04T17:01:58;39.42;;;27.25;;
69795;SDS011;57073;45.650;9.612;2022-10-04T17:04:24;35.27;;;25.47;;
69795;SDS011;57073;45.650;9.612;2022-10-04T17:06:56;37.17;;;26.75;;
69795;SDS011;57073;45.650;9.612;2022-10-04T17:11:34;40.17;;;25.63;;
69795;SDS011;57073;45.650;9.612;2022-10-04T17:13:53;40.85;;;26.90;;
69795;SDS011;57073;45.650;9.612;2022-10-04T17:16:00;40.43;;;26.63;;
69795;SDS011;57073;45.650;9.612;2022-10-04T17:20:10;44.63;;;28.48;;
69795;SDS011;57073;45.650;9.612;2022-10-04T17:22:32;38.47;;;26.77;;
69795;SDS011;57073;45.650;9.612;2022-10-04T17:25:17;38.17;;;26.45;;
69795;SDS011;57073;45.650;9.612;2022-10-04T17:32:09;39.08;;;27.90;;
69795;SDS011;57073;45.650;9.612;2022-10-04T17:36:38;39.80;;;27.38;;
69795;SDS011;57073;45.650;9.612;2022-10-04T17:48:23;39.55;;;26.58;;
69795;SDS011;57073;45.650;9.612;2022-10-04T17:50:51;40.72;;;28.30;;
69795;SDS011;57073;45.650;9.612;2022-10-04T17:53:19;38.10;;;26.30;;
69795;SDS011;57073;45.650;9.612;2022-10-04T17:55:52;45.73;;;28.27;;
69795;SDS011;57073;45.650;9.612;2022-10-04T17:58:02;43.42;;;28.10;;
69795;SDS011;57073;45.650;9.612;2022-10-04T18:00:14;40.63;;;28.60;;
69795;SDS011;57073;45.650;9.612;2022-10-04T18:02:26;42.28;;;27.92;;
69795;SDS011;57073;45.650;9.612;2022-10-04T18:04:47;46.75;;;28.48;;
69795;SDS011;57073;45.650;9.612;2022-10-04T18:06:53;41.70;;;28.63;;
69795;SDS011;57073;45.650;9.612;2022-10-04T18:09:05;44.22;;;29.08;;
69795;SDS011;57073;45.650;9.612;2022-10-04T18:13:44;43.65;;;28.73;;
69795;SDS011;57073;45.650;9.612;2022-10-04T18:18:06;45.03;;;29.37;;
69795;SDS011;57073;45.650;9.612;2022-10-04T18:20:28;43.80;;;29.55;;
69795;SDS011;57073;45.650;9.612;2022-10-04T18:22:41;44.72;;;29.63;;
69795;SDS011;57073;45.650;9.612;2022-10-04T18:24:46;45.40;;;29.52;;
69795;SDS011;57073;45.650;9.612;2022-10-04T18:26:57;43.20;;;29.95;;
69795;SDS011;57073;45.650;9.612;2022-10-04T18:28:59;45.83;;;29.70;;
69795;SDS011;57073;45.650;9.612;2022-10-04T18:31:11;44.10;;;30.02;;
69795;SDS011;57073;45.650;9.612;2022-10-04T18:33:20;45.72;;;29.10;;
69795;SDS011;57073;45.650;9.612;2022-10-04T18:35:22;47.17;;;30.98;;
69795;SDS011;57073;45.650;9.612;2022-10-04T18:37:35;42.92;;;28.88;;
69795;SDS011;57073;45.650;9.612;2022-10-04T18:39:47;42.73;;;28.77;;
69795;SDS011;57073;45.650;9.612;2022-10-04T18:41:58;47.30;;;30.33;;
69795;SDS011;57073;45.650;9.612;2022-10-04T18:44:15;43.47;;;29.05;;
69795;SDS011;57073;45.650;9.612;2022-10-04T18:46:17;44.38;;;30.23;;
69795;SDS011;57073;45.650;9.612;2022-10-04T18:48:19;43.67;;;31.25;;
69795;SDS011;57073;45.650;9.612;2022-10-04T18:50:37;46.97;;;31.20;;
69795;SDS011;57073;45.650;9.612;2022-10-04T19:02:33;50.33;;;32.97;;
69795;SDS011;57073;45.650;9.612;2022-10-04T19:07:17;48.20;;;31.58;;
69795;SDS011;57073;45.650;9.612;2022-10-04T19:09:32;45.60;;;30.42;;
69795;SDS011;57073;45.650;9.612;2022-10-04T19:11:54;47.33;;;31.65;;
69795;SDS011;57073;45.650;9.612;2022-10-04T19:14:14;48.60;;;31.00;;
69795;SDS011;57073;45.650;9.612;2022-10-04T19:16:31;46.15;;;30.83;;
69795;SDS011;57073;45.650;9.612;2022-10-04T19:25:38;47.67;;;30.53;;
69795;SDS011;57073;45.650;9.612;2022-10-04T19:27:49;45.80;;;30.88;;
69795;SDS011;57073;45.650;9.612;2022-10-04T19:36:50;49.07;;;31.27;;
69795;SDS011;57073;45.650;9.612;2022-10-04T19:39:44;49.78;;;31.55;;
69795;SDS011;57073;45.650;9.612;2022-10-04T19:46:42;47.00;;;30.60;;
69795;SDS011;57073;45.650;9.612;2022-10-04T19:48:49;52.07;;;32.70;;
69795;SDS011;57073;45.650;9.612;2022-10-04T19:51:35;49.70;;;32.00;;
69795;SDS011;57073;45.650;9.612;2022-10-04T19:53:25;53.03;;;33.33;;
69795;SDS011;57073;45.650;9.612;2022-10-04T19:57:56;49.55;;;32.55;;
69795;SDS011;57073;45.650;9.612;2022-10-04T20:00:13;57.93;;;34.17;;
69795;SDS011;57073;45.650;9.612;2022-10-04T20:02:15;50.35;;;34.72;;
69795;SDS011;57073;45.650;9.612;2022-10-04T20:04:16;54.33;;;34.85;;
69795;SDS011;57073;45.650;9.612;2022-10-04T20:06:35;57.03;;;34.90;;
69795;SDS011;57073;45.650;9.612;2022-10-04T20:10:46;51.47;;;33.90;;
69795;SDS011;57073;45.650;9.612;2022-10-04T20:17:30;51.88;;;33.75;;
69795;SDS011;57073;45.650;9.612;2022-10-04T20:21:36;53.23;;;35.43;;
69795;SDS011;57073;45.650;9.612;2022-10-04T20:31:51;54.65;;;35.40;;
69795;SDS011;57073;45.650;9.612;2022-10-04T20:33:52;54.00;;;36.28;;
69795;SDS011;57073;45.650;9.612;2022-10-04T20:35:56;60.83;;;37.03;;
69795;SDS011;57073;45.650;9.612;2022-10-04T20:40:01;58.10;;;38.93;;
69795;SDS011;57073;45.650;9.612;2022-10-04T20:42:02;54.87;;;36.83;;
69795;SDS011;57073;45.650;9.612;2022-10-04T20:46:39;56.33;;;37.28;;
69795;SDS011;57073;45.650;9.612;2022-10-04T20:48:39;56.07;;;36.67;;
69795;SDS011;57073;45.650;9.612;2022-10-04T20:50:43;60.30;;;37.55;;
69795;SDS011;57073;45.650;9.612;2022-10-04T20:52:52;55.88;;;36.95;;
69795;SDS011;57073;45.650;9.612;2022-10-04T20:54:56;54.63;;;36.72;;
69795;SDS011;57073;45.650;9.612;2022-10-04T20:57:00;56.80;;;37.23;;
69795;SDS011;57073;45.650;9.612;2022-10-04T20:59:01;61.85;;;38.28;;
69795;SDS011;57073;45.650;9.612;2022-10-04T21:03:34;60.42;;;36.63;;
69795;SDS011;57073;45.650;9.612;2022-10-04T21:05:36;59.80;;;37.30;;
69795;SDS011;57073;45.650;9.612;2022-10-04T21:07:36;54.45;;;36.22;;
69795;SDS011;57073;45.650;9.612;2022-10-04T21:09:37;57.40;;;36.97;;
69795;SDS011;57073;45.650;9.612;2022-10-04T21:11:42;57.10;;;37.95;;
69795;SDS011;57073;45.650;9.612;2022-10-04T21:13:48;53.70;;;36.40;;
69795;SDS011;57073;45.650;9.612;2022-10-04T21:15:59;56.90;;;37.92;;
69795;SDS011;57073;45.650;9.612;2022-10-04T21:20:03;54.25;;;35.92;;
69795;SDS011;57073;45.650;9.612;2022-10-04T21:22:05;57.33;;;37.40;;
69795;SDS011;57073;45.650;9.612;2022-10-04T21:26:35;59.85;;;38.08;;
69795;SDS011;57073;45.650;9.612;2022-10-04T21:28:35;57.37;;;37.60;;
69795;SDS011;57073;45.650;9.612;2022-10-04T21:30:35;54.63;;;36.93;;
69795;SDS011;57073;45.650;9.612;2022-10-04T21:32:36;55.80;;;36.33;;
69795;SDS011;57073;45.650;9.612;2022-10-04T21:34:36;54.33;;;37.53;;
69795;SDS011;57073;45.650;9.612;2022-10-04T21:36:37;56.17;;;37.05;;
69795;SDS011;57073;45.650;9.612;2022-10-04T21:38:37;60.57;;;37.90;;
69795;SDS011;57073;45.650;9.612;2022-10-04T21:40:37;62.30;;;37.90;;
69795;SDS011;57073;45.650;9.612;2022-10-04T21:42:38;62.53;;;38.47;;
69795;SDS011;57073;45.650;9.612;2022-10-04T21:44:38;56.17;;;37.83;;
69795;SDS011;57073;45.650;9.612;2022-10-04T21:46:38;56.87;;;38.50;;
69795;SDS011;57073;45.650;9.612;2022-10-04T21:48:39;55.00;;;36.53;;
69795;SDS011;57073;45.650;9.612;2022-10-04T21:50:39;57.93;;;36.60;;
69795;SDS011;57073;45.650;9.612;2022-10-04T21:52:40;54.13;;;35.87;;
69795;SDS011;57073;45.650;9.612;2022-10-04T21:54:40;53.93;;;35.47;;
69795;SDS011;57073;45.650;9.612;2022-10-04T21:56:40;51.57;;;35.57;;
69795;SDS011;57073;45.650;9.612;2022-10-04T21:58:41;54.57;;;34.73;;
69795;SDS011;57073;45.650;9.612;2022-10-04T22:00:41;54.50;;;35.47;;
69795;SDS011;57073;45.650;9.612;2022-10-04T22:02:41;54.27;;;35.23;;